sensor_id;sensor_type;location;lat;lon;timestamp;temperature;humidity
6291;DHT22;3178;48.730;8.990;2023-03-30T00:00:51;13.10;99.90
6291;DHT22;3178;48.730;8.990;2023-03-30T00:03:17;13.10;99.90
6291;DHT22;3178;48.730;8.990;2023-03-30T00:05:44;13.20;99.90
6291;DHT22;3178;48.730;8.990;2023-03-30T00:08:11;13.10;99.90
6291;DHT22;3178;48.730;8.990;2023-03-30T00:10:41;13.10;99.90
6291;DHT22;3178;48.730;8.990;2023-03-30T00:13:09;13.10;99.90
6291;DHT22;3178;48.730;8.990;2023-03-30T00:15:36;13.10;99.90
6291;DHT22;3178;48.730;8.990;2023-03-30T00:18:01;13.00;99.90
6291;DHT22;3178;48.730;8.990;2023-03-30T00:20:28;13.10;99.90
6291;DHT22;3178;48.730;8.990;2023-03-30T00:22:57;13.00;99.90
6291;DHT22;3178;48.730;8.990;2023-03-30T00:25:23;13.00;99.90
6291;DHT22;3178;48.730;8.990;2023-03-30T00:27:49;13.00;99.90
6291;DHT22;3178;48.730;8.990;2023-03-30T00:30:16;13.00;99.90
6291;DHT22;3178;48.730;8.990;2023-03-30T00:32:43;13.00;99.90
6291;DHT22;3178;48.730;8.990;2023-03-30T00:35:09;13.00;99.90
6291;DHT22;3178;48.730;8.990;2023-03-30T00:37:36;13.00;99.90
6291;DHT22;3178;48.730;8.990;2023-03-30T00:40:03;13.00;99.90
6291;DHT22;3178;48.730;8.990;2023-03-30T00:42:33;13.10;99.90
6291;DHT22;3178;48.730;8.990;2023-03-30T00:50:46;13.00;99.90
6291;DHT22;3178;48.730;8.990;2023-03-30T00:53:13;13.00;99.90
6291;DHT22;3178;48.730;8.990;2023-03-30T00:55:40;13.00;99.90
6291;DHT22;3178;48.730;8.990;2023-03-30T00:58:07;13.00;99.90
6291;DHT22;3178;48.730;8.990;2023-03-30T01:00:35;13.10;99.90
6291;DHT22;3178;48.730;8.990;2023-03-30T01:03:06;13.00;99.90
6291;DHT22;3178;48.730;8.990;2023-03-30T01:05:34;13.00;99.90
6291;DHT22;3178;48.730;8.990;2023-03-30T01:08:02;13.00;99.90
6291;DHT22;3178;48.730;8.990;2023-03-30T01:10:32;13.00;99.90
6291;DHT22;3178;48.730;8.990;2023-03-30T01:12:58;13.00;99.90
6291;DHT22;3178;48.730;8.990;2023-03-30T01:15:24;13.00;99.90
6291;DHT22;3178;48.730;8.990;2023-03-30T01:18:13;13.00;99.90
6291;DHT22;3178;48.730;8.990;2023-03-30T01:21:10;13.00;99.90
6291;DHT22;3178;48.730;8.990;2023-03-30T01:26:34;13.00;99.90
6291;DHT22;3178;48.730;8.990;2023-03-30T01:34:52;12.80;99.90
6291;DHT22;3178;48.730;8.990;2023-03-30T01:40:15;12.80;99.90
6291;DHT22;3178;48.730;8.990;2023-03-30T01:43:05;12.70;99.90
6291;DHT22;3178;48.730;8.990;2023-03-30T01:45:49;12.60;99.90
6291;DHT22;3178;48.730;8.990;2023-03-30T01:48:39;12.60;99.90
6291;DHT22;3178;48.730;8.990;2023-03-30T01:51:19;12.60;99.90
6291;DHT22;3178;48.730;8.990;2023-03-30T01:53:56;12.50;99.90
6291;DHT22;3178;48.730;8.990;2023-03-30T01:56:38;12.50;99.90
6291;DHT22;3178;48.730;8.990;2023-03-30T01:59:19;12.40;99.90
6291;DHT22;3178;48.730;8.990;2023-03-30T02:01:47;12.40;99.90
6291;DHT22;3178;48.730;8.990;2023-03-30T02:04:15;12.40;99.90
6291;DHT22;3178;48.730;8.990;2023-03-30T02:06:47;12.30;99.90
6291;DHT22;3178;48.730;8.990;2023-03-30T02:09:18;12.30;99.90
6291;DHT22;3178;48.730;8.990;2023-03-30T02:11:47;12.20;99.90
6291;DHT22;3178;48.730;8.990;2023-03-30T02:14:16;12.20;99.90
6291;DHT22;3178;48.730;8.990;2023-03-30T02:16:46;12.20;99.90
6291;DHT22;3178;48.730;8.990;2023-03-30T02:19:12;12.20;99.90
6291;DHT22;3178;48.730;8.990;2023-03-30T02:21:40;12.20;99.90
6291;DHT22;3178;48.730;8.990;2023-03-30T02:24:11;12.20;99.90
6291;DHT22;3178;48.730;8.990;2023-03-30T02:26:44;12.20;99.90
6291;DHT22;3178;48.730;8.990;2023-03-30T02:29:10;12.20;99.90
6291;DHT22;3178;48.730;8.990;2023-03-30T02:31:37;12.20;99.90
6291;DHT22;3178;48.730;8.990;2023-03-30T02:34:17;12.20;99.90
6291;DHT22;3178;48.730;8.990;2023-03-30T02:42:33;12.20;99.90
6291;DHT22;3178;48.730;8.990;2023-03-30T02:45:36;12.20;99.90
6291;DHT22;3178;48.730;8.990;2023-03-30T02:48:25;12.20;99.90
6291;DHT22;3178;48.730;8.990;2023-03-30T02:56:09;12.20;99.90
6291;DHT22;3178;48.730;8.990;2023-03-30T02:58:55;12.20;99.90
6291;DHT22;3178;48.730;8.990;2023-03-30T03:01:33;12.20;99.90
6291;DHT22;3178;48.730;8.990;2023-03-30T03:04:01;12.10;99.90
6291;DHT22;3178;48.730;8.990;2023-03-30T03:06:29;12.10;99.90
6291;DHT22;3178;48.730;8.990;2023-03-30T03:08:56;12.10;99.90
6291;DHT22;3178;48.730;8.990;2023-03-30T03:11:23;12.10;99.90
6291;DHT22;3178;48.730;8.990;2023-03-30T03:13:49;12.00;99.90
6291;DHT22;3178;48.730;8.990;2023-03-30T03:16:14;12.00;99.90
6291;DHT22;3178;48.730;8.990;2023-03-30T03:18:41;12.00;99.90
6291;DHT22;3178;48.730;8.990;2023-03-30T03:21:07;11.90;99.90
6291;DHT22;3178;48.730;8.990;2023-03-30T03:23:34;11.90;99.90
6291;DHT22;3178;48.730;8.990;2023-03-30T03:26:00;11.90;99.90
6291;DHT22;3178;48.730;8.990;2023-03-30T03:28:27;11.90;99.90
6291;DHT22;3178;48.730;8.990;2023-03-30T03:30:53;11.90;99.90
6291;DHT22;3178;48.730;8.990;2023-03-30T03:33:19;11.90;99.90
6291;DHT22;3178;48.730;8.990;2023-03-30T03:35:45;12.00;99.90
6291;DHT22;3178;48.730;8.990;2023-03-30T03:38:11;11.90;99.90
6291;DHT22;3178;48.730;8.990;2023-03-30T03:40:39;11.90;99.90
6291;DHT22;3178;48.730;8.990;2023-03-30T03:43:05;11.90;99.90
6291;DHT22;3178;48.730;8.990;2023-03-30T03:45:30;11.90;99.90
6291;DHT22;3178;48.730;8.990;2023-03-30T03:47:56;11.90;99.90
6291;DHT22;3178;48.730;8.990;2023-03-30T03:50:21;11.80;99.90
6291;DHT22;3178;48.730;8.990;2023-03-30T03:52:47;11.80;99.90
6291;DHT22;3178;48.730;8.990;2023-03-30T03:55:13;11.90;99.90
6291;DHT22;3178;48.730;8.990;2023-03-30T03:57:39;11.80;99.90
6291;DHT22;3178;48.730;8.990;2023-03-30T04:00:05;11.80;99.90
6291;DHT22;3178;48.730;8.990;2023-03-30T04:02:40;11.80;99.90
6291;DHT22;3178;48.730;8.990;2023-03-30T04:05:06;11.70;99.90
6291;DHT22;3178;48.730;8.990;2023-03-30T04:07:33;11.70;99.90
6291;DHT22;3178;48.730;8.990;2023-03-30T04:09:58;11.90;99.90
6291;DHT22;3178;48.730;8.990;2023-03-30T04:12:24;11.80;99.90
6291;DHT22;3178;48.730;8.990;2023-03-30T04:14:49;11.80;99.90
6291;DHT22;3178;48.730;8.990;2023-03-30T04:17:15;11.80;99.90
6291;DHT22;3178;48.730;8.990;2023-03-30T04:19:40;11.80;99.90
6291;DHT22;3178;48.730;8.990;2023-03-30T04:22:06;11.80;99.90
6291;DHT22;3178;48.730;8.990;2023-03-30T04:24:32;11.80;99.90
6291;DHT22;3178;48.730;8.990;2023-03-30T04:27:00;11.80;99.90
6291;DHT22;3178;48.730;8.990;2023-03-30T04:29:26;11.80;99.90
6291;DHT22;3178;48.730;8.990;2023-03-30T04:31:54;11.80;99.90
6291;DHT22;3178;48.730;8.990;2023-03-30T04:34:20;11.90;99.90
6291;DHT22;3178;48.730;8.990;2023-03-30T04:36:49;11.80;99.90
6291;DHT22;3178;48.730;8.990;2023-03-30T04:39:14;11.80;99.90
6291;DHT22;3178;48.730;8.990;2023-03-30T04:41:42;11.80;99.90
6291;DHT22;3178;48.730;8.990;2023-03-30T04:44:10;11.80;99.90
6291;DHT22;3178;48.730;8.990;2023-03-30T04:46:36;11.80;99.90
6291;DHT22;3178;48.730;8.990;2023-03-30T04:49:02;11.80;99.90
6291;DHT22;3178;48.730;8.990;2023-03-30T04:51:28;11.80;99.90
6291;DHT22;3178;48.730;8.990;2023-03-30T04:53:53;11.80;99.90
6291;DHT22;3178;48.730;8.990;2023-03-30T04:56:19;11.80;99.90
6291;DHT22;3178;48.730;8.990;2023-03-30T04:58:46;11.80;99.90
6291;DHT22;3178;48.730;8.990;2023-03-30T05:01:12;11.80;99.90
6291;DHT22;3178;48.730;8.990;2023-03-30T05:03:38;11.70;99.90
6291;DHT22;3178;48.730;8.990;2023-03-30T05:06:03;11.70;99.90
6291;DHT22;3178;48.730;8.990;2023-03-30T05:08:29;11.70;99.90
6291;DHT22;3178;48.730;8.990;2023-03-30T05:10:55;11.70;99.90
6291;DHT22;3178;48.730;8.990;2023-03-30T05:13:25;11.70;99.90
6291;DHT22;3178;48.730;8.990;2023-03-30T05:15:55;11.70;99.90
6291;DHT22;3178;48.730;8.990;2023-03-30T05:18:20;11.80;99.90
6291;DHT22;3178;48.730;8.990;2023-03-30T05:20:46;11.70;99.90
6291;DHT22;3178;48.730;8.990;2023-03-30T05:23:12;11.70;99.90
6291;DHT22;3178;48.730;8.990;2023-03-30T05:25:40;11.70;99.90
6291;DHT22;3178;48.730;8.990;2023-03-30T05:28:05;11.70;99.90
6291;DHT22;3178;48.730;8.990;2023-03-30T05:30:31;11.70;99.90
6291;DHT22;3178;48.730;8.990;2023-03-30T05:32:56;11.70;99.90
6291;DHT22;3178;48.730;8.990;2023-03-30T05:35:22;11.70;99.90
6291;DHT22;3178;48.730;8.990;2023-03-30T05:37:48;11.60;99.90
6291;DHT22;3178;48.730;8.990;2023-03-30T05:40:14;11.60;99.90
6291;DHT22;3178;48.730;8.990;2023-03-30T05:42:40;11.60;99.90
6291;DHT22;3178;48.730;8.990;2023-03-30T05:45:06;11.60;99.90
6291;DHT22;3178;48.730;8.990;2023-03-30T05:47:32;11.70;99.90
6291;DHT22;3178;48.730;8.990;2023-03-30T05:49:59;11.70;99.90
6291;DHT22;3178;48.730;8.990;2023-03-30T05:52:25;11.70;99.90
6291;DHT22;3178;48.730;8.990;2023-03-30T05:54:50;11.70;99.90
6291;DHT22;3178;48.730;8.990;2023-03-30T05:57:16;11.80;99.90
6291;DHT22;3178;48.730;8.990;2023-03-30T05:59:42;11.80;99.90
6291;DHT22;3178;48.730;8.990;2023-03-30T06:02:09;11.70;99.90
6291;DHT22;3178;48.730;8.990;2023-03-30T06:04:34;11.70;99.90
6291;DHT22;3178;48.730;8.990;2023-03-30T06:07:00;11.70;99.90
6291;DHT22;3178;48.730;8.990;2023-03-30T06:09:26;11.70;99.90
6291;DHT22;3178;48.730;8.990;2023-03-30T06:11:51;11.70;99.90
6291;DHT22;3178;48.730;8.990;2023-03-30T06:14:17;11.70;99.90
6291;DHT22;3178;48.730;8.990;2023-03-30T06:16:43;11.70;99.90
6291;DHT22;3178;48.730;8.990;2023-03-30T06:19:09;11.60;99.90
6291;DHT22;3178;48.730;8.990;2023-03-30T06:21:35;11.70;99.90
6291;DHT22;3178;48.730;8.990;2023-03-30T06:24:00;11.70;99.90
6291;DHT22;3178;48.730;8.990;2023-03-30T06:26:26;11.70;99.90
6291;DHT22;3178;48.730;8.990;2023-03-30T06:28:52;11.70;99.90
6291;DHT22;3178;48.730;8.990;2023-03-30T06:31:17;11.70;99.90
6291;DHT22;3178;48.730;8.990;2023-03-30T06:33:43;11.70;99.90
6291;DHT22;3178;48.730;8.990;2023-03-30T06:36:10;11.70;99.90
6291;DHT22;3178;48.730;8.990;2023-03-30T06:38:36;11.70;99.90
6291;DHT22;3178;48.730;8.990;2023-03-30T06:41:03;11.70;99.90
6291;DHT22;3178;48.730;8.990;2023-03-30T06:43:31;11.80;99.90
6291;DHT22;3178;48.730;8.990;2023-03-30T06:45:56;11.80;99.90
6291;DHT22;3178;48.730;8.990;2023-03-30T06:48:22;11.80;99.90
6291;DHT22;3178;48.730;8.990;2023-03-30T06:50:49;11.80;99.90
6291;DHT22;3178;48.730;8.990;2023-03-30T06:53:15;11.80;99.90
6291;DHT22;3178;48.730;8.990;2023-03-30T06:55:41;11.90;99.90
6291;DHT22;3178;48.730;8.990;2023-03-30T06:58:07;11.90;99.90
6291;DHT22;3178;48.730;8.990;2023-03-30T07:00:33;12.00;99.90
6291;DHT22;3178;48.730;8.990;2023-03-30T07:02:59;12.10;99.90
6291;DHT22;3178;48.730;8.990;2023-03-30T07:05:25;12.00;99.90
6291;DHT22;3178;48.730;8.990;2023-03-30T07:07:53;12.10;99.90
6291;DHT22;3178;48.730;8.990;2023-03-30T07:10:19;12.30;99.90
6291;DHT22;3178;48.730;8.990;2023-03-30T07:12:45;12.10;99.90
6291;DHT22;3178;48.730;8.990;2023-03-30T07:15:11;12.10;99.90
6291;DHT22;3178;48.730;8.990;2023-03-30T07:17:37;12.30;99.90
6291;DHT22;3178;48.730;8.990;2023-03-30T07:20:04;12.20;99.90
6291;DHT22;3178;48.730;8.990;2023-03-30T07:22:30;12.10;99.90
6291;DHT22;3178;48.730;8.990;2023-03-30T07:24:56;12.20;99.90
6291;DHT22;3178;48.730;8.990;2023-03-30T07:27:22;12.40;99.90
6291;DHT22;3178;48.730;8.990;2023-03-30T07:29:52;12.20;99.90
6291;DHT22;3178;48.730;8.990;2023-03-30T07:32:18;12.20;99.90
6291;DHT22;3178;48.730;8.990;2023-03-30T07:34:43;12.20;99.90
6291;DHT22;3178;48.730;8.990;2023-03-30T07:37:11;12.20;99.90
6291;DHT22;3178;48.730;8.990;2023-03-30T07:39:36;12.30;99.90
6291;DHT22;3178;48.730;8.990;2023-03-30T07:42:02;12.20;99.90
6291;DHT22;3178;48.730;8.990;2023-03-30T07:44:28;12.10;99.90
6291;DHT22;3178;48.730;8.990;2023-03-30T07:46:56;12.20;99.90
6291;DHT22;3178;48.730;8.990;2023-03-30T07:49:22;12.20;99.90
6291;DHT22;3178;48.730;8.990;2023-03-30T07:51:47;12.20;99.90
6291;DHT22;3178;48.730;8.990;2023-03-30T07:54:13;12.20;99.90
6291;DHT22;3178;48.730;8.990;2023-03-30T07:56:39;12.20;99.90
6291;DHT22;3178;48.730;8.990;2023-03-30T07:59:07;12.20;99.90
6291;DHT22;3178;48.730;8.990;2023-03-30T08:01:33;12.20;99.90
6291;DHT22;3178;48.730;8.990;2023-03-30T08:03:59;12.20;99.90
6291;DHT22;3178;48.730;8.990;2023-03-30T08:06:25;12.20;99.90
6291;DHT22;3178;48.730;8.990;2023-03-30T08:08:51;12.20;99.90
6291;DHT22;3178;48.730;8.990;2023-03-30T08:11:17;12.20;99.90
6291;DHT22;3178;48.730;8.990;2023-03-30T08:13:42;12.30;99.90
6291;DHT22;3178;48.730;8.990;2023-03-30T08:16:09;12.30;99.90
6291;DHT22;3178;48.730;8.990;2023-03-30T08:18:34;12.30;99.90
6291;DHT22;3178;48.730;8.990;2023-03-30T08:21:02;12.20;99.90
6291;DHT22;3178;48.730;8.990;2023-03-30T08:23:27;12.30;99.90
6291;DHT22;3178;48.730;8.990;2023-03-30T08:25:57;12.30;99.90
6291;DHT22;3178;48.730;8.990;2023-03-30T08:28:23;12.40;99.90
6291;DHT22;3178;48.730;8.990;2023-03-30T08:30:48;12.30;99.90
6291;DHT22;3178;48.730;8.990;2023-03-30T08:33:14;12.30;99.90
6291;DHT22;3178;48.730;8.990;2023-03-30T08:35:43;12.30;99.90
6291;DHT22;3178;48.730;8.990;2023-03-30T08:38:08;12.30;99.90
6291;DHT22;3178;48.730;8.990;2023-03-30T08:40:40;12.30;99.90
6291;DHT22;3178;48.730;8.990;2023-03-30T08:45:50;12.30;99.90
6291;DHT22;3178;48.730;8.990;2023-03-30T08:48:22;12.20;99.90
6291;DHT22;3178;48.730;8.990;2023-03-30T08:50:58;12.20;99.90
6291;DHT22;3178;48.730;8.990;2023-03-30T08:53:26;12.20;99.90
6291;DHT22;3178;48.730;8.990;2023-03-30T08:55:57;12.10;99.90
6291;DHT22;3178;48.730;8.990;2023-03-30T09:01:04;11.90;99.90
6291;DHT22;3178;48.730;8.990;2023-03-30T09:03:44;11.80;99.90
6291;DHT22;3178;48.730;8.990;2023-03-30T09:06:33;11.80;99.90
6291;DHT22;3178;48.730;8.990;2023-03-30T09:09:06;11.80;99.90
6291;DHT22;3178;48.730;8.990;2023-03-30T09:11:35;11.70;99.90
6291;DHT22;3178;48.730;8.990;2023-03-30T09:14:05;11.60;99.90
6291;DHT22;3178;48.730;8.990;2023-03-30T09:16:40;11.60;99.90
6291;DHT22;3178;48.730;8.990;2023-03-30T09:19:12;11.60;99.90
6291;DHT22;3178;48.730;8.990;2023-03-30T09:21:38;11.60;99.90
6291;DHT22;3178;48.730;8.990;2023-03-30T09:24:11;11.60;99.90
6291;DHT22;3178;48.730;8.990;2023-03-30T09:29:31;11.60;99.90
6291;DHT22;3178;48.730;8.990;2023-03-30T09:32:01;11.70;99.90
6291;DHT22;3178;48.730;8.990;2023-03-30T09:34:39;11.80;99.90
6291;DHT22;3178;48.730;8.990;2023-03-30T09:37:11;11.70;99.90
6291;DHT22;3178;48.730;8.990;2023-03-30T09:39:38;11.80;99.90
6291;DHT22;3178;48.730;8.990;2023-03-30T09:44:50;11.90;99.90
6291;DHT22;3178;48.730;8.990;2023-03-30T09:50:03;12.00;99.90
6291;DHT22;3178;48.730;8.990;2023-03-30T09:52:32;11.90;99.90
6291;DHT22;3178;48.730;8.990;2023-03-30T09:57:46;12.10;99.90
6291;DHT22;3178;48.730;8.990;2023-03-30T10:00:27;12.10;99.90
6291;DHT22;3178;48.730;8.990;2023-03-30T10:02:58;12.20;99.90
6291;DHT22;3178;48.730;8.990;2023-03-30T10:05:25;12.30;99.90
6291;DHT22;3178;48.730;8.990;2023-03-30T10:08:00;12.40;99.90
6291;DHT22;3178;48.730;8.990;2023-03-30T10:10:33;12.40;99.90
6291;DHT22;3178;48.730;8.990;2023-03-30T10:13:17;12.60;99.90
6291;DHT22;3178;48.730;8.990;2023-03-30T10:15:45;12.70;99.90
6291;DHT22;3178;48.730;8.990;2023-03-30T10:18:23;12.80;99.90
6291;DHT22;3178;48.730;8.990;2023-03-30T10:20:52;12.60;99.90
6291;DHT22;3178;48.730;8.990;2023-03-30T10:23:20;12.70;99.90
6291;DHT22;3178;48.730;8.990;2023-03-30T10:25:47;12.80;99.90
6291;DHT22;3178;48.730;8.990;2023-03-30T10:28:27;12.80;99.90
6291;DHT22;3178;48.730;8.990;2023-03-30T10:31:01;12.80;99.90
6291;DHT22;3178;48.730;8.990;2023-03-30T10:33:29;12.80;99.90
6291;DHT22;3178;48.730;8.990;2023-03-30T10:35:56;12.80;99.90
6291;DHT22;3178;48.730;8.990;2023-03-30T10:38:32;12.90;99.90
6291;DHT22;3178;48.730;8.990;2023-03-30T10:41:21;12.90;99.90
6291;DHT22;3178;48.730;8.990;2023-03-30T10:43:48;13.00;99.90
6291;DHT22;3178;48.730;8.990;2023-03-30T10:46:20;13.00;99.90
6291;DHT22;3178;48.730;8.990;2023-03-30T10:57:12;12.80;99.90
6291;DHT22;3178;48.730;8.990;2023-03-30T11:03:05;12.90;99.90
6291;DHT22;3178;48.730;8.990;2023-03-30T11:05:41;12.90;99.90
6291;DHT22;3178;48.730;8.990;2023-03-30T11:08:37;12.80;99.90
6291;DHT22;3178;48.730;8.990;2023-03-30T11:11:06;12.90;99.90
6291;DHT22;3178;48.730;8.990;2023-03-30T11:13:38;13.00;99.90
6291;DHT22;3178;48.730;8.990;2023-03-30T11:16:29;13.00;99.90
6291;DHT22;3178;48.730;8.990;2023-03-30T11:19:09;13.00;99.90
6291;DHT22;3178;48.730;8.990;2023-03-30T11:22:11;13.00;99.90
6291;DHT22;3178;48.730;8.990;2023-03-30T11:24:40;13.00;99.90
6291;DHT22;3178;48.730;8.990;2023-03-30T11:27:29;13.10;99.90
6291;DHT22;3178;48.730;8.990;2023-03-30T11:30:33;13.10;99.90
6291;DHT22;3178;48.730;8.990;2023-03-30T11:33:20;13.10;99.90
6291;DHT22;3178;48.730;8.990;2023-03-30T11:35:54;13.20;99.90
6291;DHT22;3178;48.730;8.990;2023-03-30T11:38:38;13.40;99.90
6291;DHT22;3178;48.730;8.990;2023-03-30T11:41:12;13.40;99.90
6291;DHT22;3178;48.730;8.990;2023-03-30T11:43:38;13.50;99.90
6291;DHT22;3178;48.730;8.990;2023-03-30T11:46:54;13.40;99.90
6291;DHT22;3178;48.730;8.990;2023-03-30T11:49:24;13.50;99.90
6291;DHT22;3178;48.730;8.990;2023-03-30T11:57:32;13.70;99.90
6291;DHT22;3178;48.730;8.990;2023-03-30T12:06:19;13.90;99.90
6291;DHT22;3178;48.730;8.990;2023-03-30T12:19:43;13.70;99.90
6291;DHT22;3178;48.730;8.990;2023-03-30T12:22:36;13.60;99.90
6291;DHT22;3178;48.730;8.990;2023-03-30T12:27:34;14.40;99.90
6291;DHT22;3178;48.730;8.990;2023-03-30T12:30:28;14.60;99.90
6291;DHT22;3178;48.730;8.990;2023-03-30T12:33:03;14.90;99.90
6291;DHT22;3178;48.730;8.990;2023-03-30T12:38:15;15.60;99.90
6291;DHT22;3178;48.730;8.990;2023-03-30T12:40:46;15.70;99.90
6291;DHT22;3178;48.730;8.990;2023-03-30T12:43:33;15.90;99.90
6291;DHT22;3178;48.730;8.990;2023-03-30T12:49:09;15.70;99.90
6291;DHT22;3178;48.730;8.990;2023-03-30T12:59:54;15.40;99.90
6291;DHT22;3178;48.730;8.990;2023-03-30T13:05:34;15.50;99.90
6291;DHT22;3178;48.730;8.990;2023-03-30T13:08:39;15.40;99.90
6291;DHT22;3178;48.730;8.990;2023-03-30T13:11:17;15.40;99.90
6291;DHT22;3178;48.730;8.990;2023-03-30T13:13:58;15.50;99.90
6291;DHT22;3178;48.730;8.990;2023-03-30T13:24:34;15.90;99.90
6291;DHT22;3178;48.730;8.990;2023-03-30T13:27:21;16.00;99.90
6291;DHT22;3178;48.730;8.990;2023-03-30T13:49:14;16.50;99.90
6291;DHT22;3178;48.730;8.990;2023-03-30T13:51:42;16.60;99.90
6291;DHT22;3178;48.730;8.990;2023-03-30T13:54:16;16.80;99.90
6291;DHT22;3178;48.730;8.990;2023-03-30T13:56:47;16.60;99.90
6291;DHT22;3178;48.730;8.990;2023-03-30T13:59:26;16.50;99.90
6291;DHT22;3178;48.730;8.990;2023-03-30T14:01:55;16.60;99.90
6291;DHT22;3178;48.730;8.990;2023-03-30T14:04:21;16.50;99.90
6291;DHT22;3178;48.730;8.990;2023-03-30T14:06:47;16.30;99.90
6291;DHT22;3178;48.730;8.990;2023-03-30T14:09:24;16.10;99.90
6291;DHT22;3178;48.730;8.990;2023-03-30T14:11:58;16.20;99.90
6291;DHT22;3178;48.730;8.990;2023-03-30T14:14:37;16.30;99.90
6291;DHT22;3178;48.730;8.990;2023-03-30T14:17:18;16.30;99.90
6291;DHT22;3178;48.730;8.990;2023-03-30T14:22:58;16.30;99.90
6291;DHT22;3178;48.730;8.990;2023-03-30T14:25:31;16.20;99.90
6291;DHT22;3178;48.730;8.990;2023-03-30T14:28:15;16.30;99.90
6291;DHT22;3178;48.730;8.990;2023-03-30T14:30:56;16.10;99.90
6291;DHT22;3178;48.730;8.990;2023-03-30T14:33:22;16.10;99.90
6291;DHT22;3178;48.730;8.990;2023-03-30T14:35:51;16.10;99.90
6291;DHT22;3178;48.730;8.990;2023-03-30T14:38:32;16.10;99.90
6291;DHT22;3178;48.730;8.990;2023-03-30T14:41:13;15.90;99.90
6291;DHT22;3178;48.730;8.990;2023-03-30T14:43:45;15.80;99.90
6291;DHT22;3178;48.730;8.990;2023-03-30T14:46:14;15.90;99.90
6291;DHT22;3178;48.730;8.990;2023-03-30T14:48:42;15.90;99.90
6291;DHT22;3178;48.730;8.990;2023-03-30T14:51:36;16.00;99.90
6291;DHT22;3178;48.730;8.990;2023-03-30T14:54:03;16.00;99.90
6291;DHT22;3178;48.730;8.990;2023-03-30T14:56:29;15.80;99.90
6291;DHT22;3178;48.730;8.990;2023-03-30T14:58:55;15.80;99.90
6291;DHT22;3178;48.730;8.990;2023-03-30T15:01:25;15.60;99.90
6291;DHT22;3178;48.730;8.990;2023-03-30T15:03:56;15.50;99.90
6291;DHT22;3178;48.730;8.990;2023-03-30T15:06:23;15.50;99.90
6291;DHT22;3178;48.730;8.990;2023-03-30T15:08:50;15.40;99.90
6291;DHT22;3178;48.730;8.990;2023-03-30T15:11:21;15.40;99.90
6291;DHT22;3178;48.730;8.990;2023-03-30T15:13:51;15.40;99.90
6291;DHT22;3178;48.730;8.990;2023-03-30T15:16:21;15.40;99.90
6291;DHT22;3178;48.730;8.990;2023-03-30T15:18:49;15.60;99.90
6291;DHT22;3178;48.730;8.990;2023-03-30T15:21:16;15.40;99.90
6291;DHT22;3178;48.730;8.990;2023-03-30T15:23:44;15.40;99.90
6291;DHT22;3178;48.730;8.990;2023-03-30T15:26:10;15.40;99.90
6291;DHT22;3178;48.730;8.990;2023-03-30T15:28:51;15.30;99.90
6291;DHT22;3178;48.730;8.990;2023-03-30T15:31:18;15.30;99.90
6291;DHT22;3178;48.730;8.990;2023-03-30T15:33:48;15.30;99.90
6291;DHT22;3178;48.730;8.990;2023-03-30T15:36:22;15.30;99.90
6291;DHT22;3178;48.730;8.990;2023-03-30T15:38:56;15.30;99.90
6291;DHT22;3178;48.730;8.990;2023-03-30T15:41:48;15.30;99.90
6291;DHT22;3178;48.730;8.990;2023-03-30T15:44:18;15.40;99.90
6291;DHT22;3178;48.730;8.990;2023-03-30T15:46:47;15.50;99.90
6291;DHT22;3178;48.730;8.990;2023-03-30T15:49:15;15.30;99.90
6291;DHT22;3178;48.730;8.990;2023-03-30T15:51:44;15.40;99.90
6291;DHT22;3178;48.730;8.990;2023-03-30T15:54:16;15.30;99.90
6291;DHT22;3178;48.730;8.990;2023-03-30T15:57:22;15.20;99.90
6291;DHT22;3178;48.730;8.990;2023-03-30T15:59:44;15.20;99.90
6291;DHT22;3178;48.730;8.990;2023-03-30T16:04:44;15.10;99.90
6291;DHT22;3178;48.730;8.990;2023-03-30T16:07:22;15.00;99.90
6291;DHT22;3178;48.730;8.990;2023-03-30T16:09:49;15.00;99.90
6291;DHT22;3178;48.730;8.990;2023-03-30T16:12:21;14.90;99.90
6291;DHT22;3178;48.730;8.990;2023-03-30T16:14:47;14.70;99.90
6291;DHT22;3178;48.730;8.990;2023-03-30T16:17:14;14.70;99.90
6291;DHT22;3178;48.730;8.990;2023-03-30T16:19:40;14.60;99.90
6291;DHT22;3178;48.730;8.990;2023-03-30T16:22:10;14.50;99.90
6291;DHT22;3178;48.730;8.990;2023-03-30T16:24:36;14.30;99.90
6291;DHT22;3178;48.730;8.990;2023-03-30T16:27:03;14.30;99.90
6291;DHT22;3178;48.730;8.990;2023-03-30T16:29:29;14.20;99.90
6291;DHT22;3178;48.730;8.990;2023-03-30T16:31:56;14.20;99.90
6291;DHT22;3178;48.730;8.990;2023-03-30T16:34:22;14.20;99.90
6291;DHT22;3178;48.730;8.990;2023-03-30T16:36:48;14.20;99.90
6291;DHT22;3178;48.730;8.990;2023-03-30T16:39:22;14.10;99.90
6291;DHT22;3178;48.730;8.990;2023-03-30T16:41:49;14.10;99.90
6291;DHT22;3178;48.730;8.990;2023-03-30T16:44:16;14.00;99.90
6291;DHT22;3178;48.730;8.990;2023-03-30T16:46:43;13.80;99.90
6291;DHT22;3178;48.730;8.990;2023-03-30T16:49:13;13.80;99.90
6291;DHT22;3178;48.730;8.990;2023-03-30T16:51:40;13.80;99.90
6291;DHT22;3178;48.730;8.990;2023-03-30T16:54:06;13.90;99.90
6291;DHT22;3178;48.730;8.990;2023-03-30T16:56:32;13.70;99.90
6291;DHT22;3178;48.730;8.990;2023-03-30T16:58:57;13.70;99.90
6291;DHT22;3178;48.730;8.990;2023-03-30T17:01:27;13.70;99.90
6291;DHT22;3178;48.730;8.990;2023-03-30T17:03:53;13.60;99.90
6291;DHT22;3178;48.730;8.990;2023-03-30T17:06:19;13.50;99.90
6291;DHT22;3178;48.730;8.990;2023-03-30T17:08:47;13.50;99.90
6291;DHT22;3178;48.730;8.990;2023-03-30T17:11:13;13.40;99.90
6291;DHT22;3178;48.730;8.990;2023-03-30T17:13:39;13.40;99.90
6291;DHT22;3178;48.730;8.990;2023-03-30T17:16:05;13.40;99.90
6291;DHT22;3178;48.730;8.990;2023-03-30T17:18:31;13.30;99.90
6291;DHT22;3178;48.730;8.990;2023-03-30T17:20:58;13.30;99.90
6291;DHT22;3178;48.730;8.990;2023-03-30T17:23:27;13.20;99.90
6291;DHT22;3178;48.730;8.990;2023-03-30T17:25:53;13.10;99.90
6291;DHT22;3178;48.730;8.990;2023-03-30T17:30:45;13.00;99.90
6291;DHT22;3178;48.730;8.990;2023-03-30T17:33:11;13.00;99.90
6291;DHT22;3178;48.730;8.990;2023-03-30T17:35:37;13.00;99.90
6291;DHT22;3178;48.730;8.990;2023-03-30T17:38:04;12.80;99.90
6291;DHT22;3178;48.730;8.990;2023-03-30T17:40:34;12.80;99.90
6291;DHT22;3178;48.730;8.990;2023-03-30T17:43:04;12.80;99.90
6291;DHT22;3178;48.730;8.990;2023-03-30T17:45:29;12.70;99.90
6291;DHT22;3178;48.730;8.990;2023-03-30T17:47:55;12.70;99.90
6291;DHT22;3178;48.730;8.990;2023-03-30T17:50:26;12.60;99.90
6291;DHT22;3178;48.730;8.990;2023-03-30T17:52:53;12.50;99.90
6291;DHT22;3178;48.730;8.990;2023-03-30T17:55:22;12.50;99.90
6291;DHT22;3178;48.730;8.990;2023-03-30T17:57:48;12.60;99.90
6291;DHT22;3178;48.730;8.990;2023-03-30T18:00:28;12.40;99.90
6291;DHT22;3178;48.730;8.990;2023-03-30T18:02:54;12.40;99.90
6291;DHT22;3178;48.730;8.990;2023-03-30T18:05:22;12.30;99.90
6291;DHT22;3178;48.730;8.990;2023-03-30T18:07:48;12.30;99.90
6291;DHT22;3178;48.730;8.990;2023-03-30T18:10:19;12.30;99.90
6291;DHT22;3178;48.730;8.990;2023-03-30T18:12:45;12.30;99.90
6291;DHT22;3178;48.730;8.990;2023-03-30T18:15:11;12.30;99.90
6291;DHT22;3178;48.730;8.990;2023-03-30T18:17:37;12.20;99.90
6291;DHT22;3178;48.730;8.990;2023-03-30T18:20:33;12.20;99.90
6291;DHT22;3178;48.730;8.990;2023-03-30T18:22:59;12.20;99.90
6291;DHT22;3178;48.730;8.990;2023-03-30T18:25:25;12.30;99.90
6291;DHT22;3178;48.730;8.990;2023-03-30T18:27:51;12.20;99.90
6291;DHT22;3178;48.730;8.990;2023-03-30T18:30:32;12.10;99.90
6291;DHT22;3178;48.730;8.990;2023-03-30T18:32:58;12.10;99.90
6291;DHT22;3178;48.730;8.990;2023-03-30T18:35:26;12.10;99.90